createdAt,value
2022-10-21T00:00:29.400Z,21.40
2022-10-21T00:02:56.083Z,21.39
2022-10-21T00:05:23.877Z,21.42
2022-10-21T00:07:50.553Z,21.42
2022-10-21T00:10:17.167Z,21.41
2022-10-21T00:12:43.836Z,21.41
2022-10-21T00:15:11.296Z,21.42
2022-10-21T00:17:38.687Z,21.43
2022-10-21T00:20:06.226Z,21.41
2022-10-21T00:22:32.899Z,21.42
2022-10-21T00:24:59.665Z,21.42
2022-10-21T00:27:26.309Z,21.41
2022-10-21T00:29:52.905Z,21.42
2022-10-21T00:32:19.506Z,21.42
2022-10-21T00:34:47.159Z,21.42
2022-10-21T00:37:14.488Z,21.42
2022-10-21T00:39:41.165Z,21.42
2022-10-21T00:42:13.843Z,21.43
2022-10-21T00:44:40.608Z,21.42
2022-10-21T00:47:13.339Z,21.42
2022-10-21T00:49:42.210Z,21.41
2022-10-21T00:52:10.518Z,21.42
2022-10-21T00:54:38.448Z,21.42
2022-10-21T00:57:05.207Z,21.41
2022-10-21T00:59:34.228Z,21.41
2022-10-21T01:02:01.042Z,21.41
2022-10-21T01:04:27.720Z,21.40
2022-10-21T01:06:55.048Z,21.41
2022-10-21T01:09:21.964Z,21.40
2022-10-21T01:11:49.491Z,21.39
2022-10-21T01:14:31.343Z,21.39
2022-10-21T01:17:04.038Z,21.38
2022-10-21T01:19:50.894Z,21.39
2022-10-21T01:22:20.346Z,21.39
2022-10-21T01:24:49.840Z,21.38
2022-10-21T01:27:20.744Z,21.38
2022-10-21T01:30:08.531Z,21.36
2022-10-21T01:32:41.376Z,21.36
2022-10-21T01:35:22.727Z,21.36
2022-10-21T01:38:07.693Z,21.34
2022-10-21T01:40:57.678Z,21.33
2022-10-21T01:43:38.014Z,21.31
2022-10-21T01:46:12.287Z,21.31
2022-10-21T01:48:43.630Z,21.30
2022-10-21T01:51:11.315Z,21.30
2022-10-21T01:53:58.172Z,21.30
2022-10-21T01:56:25.896Z,21.28
2022-10-21T01:58:53.388Z,21.30
2022-10-21T02:01:21.258Z,21.32
2022-10-21T02:03:50.343Z,21.30
2022-10-21T02:06:17.057Z,21.32
2022-10-21T02:08:44.184Z,21.30
2022-10-21T02:11:12.022Z,21.30
2022-10-21T02:13:42.699Z,21.28
2022-10-21T02:16:11.063Z,21.27
2022-10-21T02:18:37.656Z,21.26
2022-10-21T02:21:09.699Z,21.26
2022-10-21T02:23:40.096Z,21.28
2022-10-21T02:26:07.031Z,21.28
2022-10-21T02:28:34.032Z,21.28
2022-10-21T02:31:06.707Z,21.26
2022-10-21T02:33:40.608Z,21.25
2022-10-21T02:36:10.875Z,21.25
2022-10-21T02:38:41.294Z,21.26
2022-10-21T02:41:10.321Z,21.24
2022-10-21T02:43:40.051Z,21.22
2022-10-21T02:46:08.388Z,21.22
2022-10-21T02:48:35.697Z,21.21
2022-10-21T02:51:04.020Z,21.22
2022-10-21T02:53:30.635Z,21.21
2022-10-21T02:55:57.325Z,21.18
2022-10-21T02:58:24.041Z,21.17
2022-10-21T03:00:51.841Z,21.18
2022-10-21T03:03:18.495Z,21.16
2022-10-21T03:05:45.199Z,21.17
2022-10-21T03:08:11.828Z,21.17
2022-10-21T03:10:38.519Z,21.15
2022-10-21T03:13:05.102Z,21.17
2022-10-21T03:15:31.878Z,21.17
2022-10-21T03:17:58.473Z,21.16
2022-10-21T03:20:25.167Z,21.17
2022-10-21T03:22:51.791Z,21.15
2022-10-21T03:25:18.409Z,21.16
2022-10-21T03:27:45.061Z,21.15
2022-10-21T03:30:11.810Z,21.16
2022-10-21T03:32:38.672Z,21.15
2022-10-21T03:35:05.745Z,21.15
2022-10-21T03:37:32.510Z,21.14
2022-10-21T03:39:59.108Z,21.15
2022-10-21T03:42:25.792Z,21.15
2022-10-21T03:44:52.373Z,21.14
2022-10-21T03:47:18.949Z,21.14
2022-10-21T03:49:45.590Z,21.14
2022-10-21T03:52:12.180Z,21.14
2022-10-21T03:54:38.812Z,21.13
2022-10-21T03:57:05.398Z,21.14
2022-10-21T03:59:32.045Z,21.14
2022-10-21T04:01:58.793Z,21.13
2022-10-21T04:04:25.529Z,21.13
2022-10-21T04:06:52.199Z,21.11
2022-10-21T04:09:18.898Z,21.12
2022-10-21T04:11:45.613Z,21.12
2022-10-21T04:14:15.243Z,21.12
2022-10-21T04:16:42.291Z,21.13
2022-10-21T04:19:09.146Z,21.13
2022-10-21T04:21:35.766Z,21.11
2022-10-21T04:24:02.500Z,21.12
2022-10-21T04:26:29.134Z,21.12
2022-10-21T04:28:55.734Z,21.11
2022-10-21T04:31:22.330Z,21.11
2022-10-21T04:33:50.176Z,21.12
2022-10-21T04:36:16.742Z,21.10
2022-10-21T04:38:43.354Z,21.09
2022-10-21T04:41:10.067Z,21.10
2022-10-21T04:43:37.191Z,21.09
2022-10-21T04:46:06.533Z,21.08
2022-10-21T04:48:35.387Z,21.09
2022-10-21T04:51:02.211Z,21.08
2022-10-21T04:53:28.787Z,21.07
2022-10-21T04:55:55.350Z,21.06
2022-10-21T04:58:25.639Z,21.06
2022-10-21T05:00:52.264Z,21.05
2022-10-21T05:03:19.323Z,21.05
2022-10-21T05:05:46.116Z,21.04
2022-10-21T05:08:12.728Z,21.04
2022-10-21T05:10:39.348Z,21.04
2022-10-21T05:13:06.376Z,21.02
2022-10-21T05:15:33.552Z,21.03
2022-10-21T05:18:00.213Z,21.03
2022-10-21T05:20:26.877Z,21.01
2022-10-21T05:22:53.783Z,21.01
2022-10-21T05:25:21.375Z,21.01
2022-10-21T05:27:48.434Z,21.01
2022-10-21T05:30:15.280Z,21.01
2022-10-21T05:32:42.220Z,21.00
2022-10-21T05:35:10.554Z,20.98
2022-10-21T05:37:37.392Z,20.99
2022-10-21T05:40:04.857Z,20.99
2022-10-21T05:42:31.484Z,20.99
2022-10-21T05:44:58.079Z,20.98
2022-10-21T05:47:24.703Z,20.99
2022-10-21T05:49:51.591Z,21.01
2022-10-21T05:52:18.211Z,21.04
2022-10-21T05:54:44.811Z,21.06
2022-10-21T05:57:11.446Z,21.11
2022-10-21T05:59:38.052Z,21.16
2022-10-21T06:02:04.704Z,21.22
2022-10-21T06:04:35.023Z,21.26
2022-10-21T06:07:04.550Z,21.31
2022-10-21T06:09:31.268Z,21.37
2022-10-21T06:11:58.190Z,21.43
2022-10-21T06:14:25.412Z,21.49
2022-10-21T06:16:52.109Z,21.54
2022-10-21T06:19:18.732Z,21.61
2022-10-21T06:21:45.497Z,21.66
2022-10-21T06:24:12.138Z,21.72
2022-10-21T06:26:38.703Z,21.77
2022-10-21T06:29:05.296Z,21.86
2022-10-21T06:31:31.916Z,21.89
2022-10-21T06:33:58.617Z,21.91
2022-10-21T06:36:25.218Z,21.94
2022-10-21T06:38:51.833Z,21.98
2022-10-21T06:41:19.125Z,22.00
2022-10-21T06:43:45.784Z,22.04
2022-10-21T06:46:16.689Z,22.06
2022-10-21T06:48:43.344Z,22.05
2022-10-21T06:51:12.995Z,21.98
2022-10-21T06:53:39.733Z,21.93
2022-10-21T06:56:14.191Z,22.03
2022-10-21T06:58:46.463Z,22.02
2022-10-21T07:01:27.514Z,22.01
2022-10-21T07:04:01.379Z,22.01
2022-10-21T07:06:28.102Z,22.02
2022-10-21T07:08:58.309Z,22.01
2022-10-21T07:11:25.878Z,22.00
2022-10-21T07:13:52.493Z,21.98
2022-10-21T07:16:25.369Z,21.99
2022-10-21T07:18:52.060Z,22.00
2022-10-21T07:21:19.603Z,22.00
2022-10-21T07:23:47.093Z,21.96
2022-10-21T07:26:14.363Z,21.92
2022-10-21T07:28:42.278Z,21.85
2022-10-21T07:31:08.867Z,21.89
2022-10-21T07:33:35.553Z,21.91
2022-10-21T07:36:05.356Z,21.92
2022-10-21T07:38:34.199Z,21.93
2022-10-21T07:41:01.070Z,21.93
2022-10-21T07:43:27.871Z,21.94
2022-10-21T07:45:54.553Z,21.93
2022-10-21T07:48:27.406Z,21.94
2022-10-21T07:50:53.988Z,21.94
2022-10-21T07:53:21.768Z,21.95
2022-10-21T07:55:48.518Z,21.93
2022-10-21T07:58:24.672Z,21.94
2022-10-21T08:00:51.520Z,21.96
2022-10-21T08:03:18.241Z,21.96
2022-10-21T08:05:44.897Z,21.97
2022-10-21T08:08:11.551Z,21.97
2022-10-21T08:10:41.711Z,21.97
2022-10-21T08:13:08.496Z,21.98
2022-10-21T08:15:35.457Z,21.97
2022-10-21T08:18:02.030Z,21.98
2022-10-21T08:20:28.624Z,21.98
2022-10-21T08:22:55.250Z,21.98
2022-10-21T08:25:21.857Z,21.97
2022-10-21T08:27:48.501Z,21.96
2022-10-21T08:30:15.828Z,21.95
2022-10-21T08:32:43.272Z,21.94
2022-10-21T08:35:09.859Z,21.93
2022-10-21T08:37:36.501Z,21.92
2022-10-21T08:40:03.829Z,21.91
2022-10-21T08:42:30.466Z,21.91
2022-10-21T08:45:00.652Z,21.90
2022-10-21T08:47:33.764Z,21.88
2022-10-21T08:50:14.261Z,21.88
2022-10-21T08:52:42.723Z,21.87
2022-10-21T08:55:17.520Z,21.86
2022-10-21T08:57:44.110Z,21.85
2022-10-21T09:00:21.670Z,21.85
2022-10-21T09:02:48.355Z,21.83
2022-10-21T09:05:38.642Z,21.83
2022-10-21T09:08:29.373Z,21.82
2022-10-21T09:11:15.734Z,21.82
2022-10-21T09:14:01.174Z,21.83
2022-10-21T09:16:27.866Z,21.82
2022-10-21T09:19:12.463Z,21.82
2022-10-21T09:22:10.541Z,21.81
2022-10-21T09:24:53.157Z,21.78
2022-10-21T09:27:27.033Z,21.79
2022-10-21T09:30:06.384Z,21.77
2022-10-21T09:32:36.295Z,21.76
2022-10-21T09:35:09.207Z,21.73
2022-10-21T09:37:38.417Z,21.73
2022-10-21T09:40:21.822Z,21.71
2022-10-21T09:42:53.162Z,21.72
2022-10-21T09:45:23.985Z,21.73
2022-10-21T09:48:05.783Z,21.71
2022-10-21T09:50:33.990Z,21.70
2022-10-21T09:53:24.005Z,21.70
2022-10-21T09:55:58.557Z,21.70
2022-10-21T09:58:49.443Z,21.69
2022-10-21T10:01:18.130Z,21.66
2022-10-21T10:03:46.317Z,21.65
2022-10-21T10:06:13.015Z,21.65
2022-10-21T10:08:41.636Z,21.64
2022-10-21T10:11:11.112Z,21.63
2022-10-21T10:13:39.438Z,21.63
2022-10-21T10:16:13.509Z,21.61
2022-10-21T10:18:40.548Z,21.61
2022-10-21T10:21:10.574Z,21.58
2022-10-21T10:24:06.702Z,21.58
2022-10-21T10:26:36.790Z,21.55
2022-10-21T10:29:19.786Z,21.54
2022-10-21T10:31:50.569Z,21.53
2022-10-21T10:34:22.457Z,21.52
2022-10-21T10:36:50.632Z,21.53
2022-10-21T10:39:21.692Z,21.53
2022-10-21T10:41:49.786Z,21.55
2022-10-21T10:44:25.492Z,21.58
2022-10-21T10:46:56.724Z,21.64
2022-10-21T10:49:24.196Z,21.69
2022-10-21T10:52:04.639Z,21.71
2022-10-21T10:54:31.350Z,21.76
2022-10-21T10:56:57.946Z,21.78
2022-10-21T10:59:24.485Z,21.81
2022-10-21T11:02:00.498Z,21.87
2022-10-21T11:04:35.668Z,21.91
2022-10-21T11:07:14.517Z,21.96
2022-10-21T11:09:44.820Z,22.03
2022-10-21T11:12:20.789Z,22.07
2022-10-21T11:14:52.013Z,22.13
2022-10-21T11:17:22.578Z,22.18
2022-10-21T11:19:52.979Z,22.23
2022-10-21T11:22:22.429Z,22.27
2022-10-21T11:25:03.255Z,22.31
2022-10-21T11:27:29.905Z,22.34
2022-10-21T11:30:02.423Z,22.38
2022-10-21T11:32:35.060Z,22.41
2022-10-21T11:35:04.702Z,22.45
2022-10-21T11:37:31.299Z,22.49
2022-10-21T11:39:57.868Z,22.52
2022-10-21T11:42:31.473Z,22.56
2022-10-21T11:45:16.817Z,22.59
2022-10-21T11:47:49.760Z,22.63
2022-10-21T11:50:24.655Z,22.68
2022-10-21T11:53:12.679Z,22.70
2022-10-21T11:55:42.884Z,22.72
2022-10-21T11:58:35.880Z,22.73
2022-10-21T12:01:24.181Z,22.76
2022-10-21T12:04:16.164Z,22.77
2022-10-21T12:06:56.806Z,22.80
2022-10-21T12:09:43.704Z,22.80
2022-10-21T12:12:13.156Z,22.82
2022-10-21T12:14:47.119Z,22.84
2022-10-21T12:17:17.289Z,22.85
2022-10-21T12:19:47.677Z,22.85
2022-10-21T12:22:14.464Z,22.86
2022-10-21T12:24:46.533Z,22.85
2022-10-21T12:27:31.874Z,22.86
2022-10-21T12:30:10.767Z,22.85
2022-10-21T12:32:43.279Z,22.84
2022-10-21T12:35:13.610Z,22.85
2022-10-21T12:37:52.586Z,22.83
2022-10-21T12:40:28.170Z,22.82
2022-10-21T12:42:59.595Z,22.83
2022-10-21T12:45:31.103Z,22.84
2022-10-21T12:47:58.201Z,22.83
2022-10-21T12:50:32.891Z,22.83
2022-10-21T12:53:14.519Z,22.83
2022-10-21T12:55:42.069Z,22.84
2022-10-21T12:58:37.759Z,22.83
2022-10-21T13:01:06.077Z,22.84
2022-10-21T13:03:49.244Z,22.83
2022-10-21T13:06:15.878Z,22.82
2022-10-21T13:08:55.569Z,22.81
2022-10-21T13:11:23.927Z,22.81
2022-10-21T13:14:09.116Z,22.80
2022-10-21T13:16:40.906Z,22.78
2022-10-21T13:19:16.322Z,22.75
2022-10-21T13:21:43.798Z,22.75
2022-10-21T13:24:15.698Z,22.76
2022-10-21T13:26:48.232Z,22.77
2022-10-21T13:29:22.081Z,22.77
2022-10-21T13:32:08.605Z,22.76
2022-10-21T13:34:37.967Z,22.78
2022-10-21T13:37:16.117Z,22.76
2022-10-21T13:39:57.903Z,22.76
2022-10-21T13:42:26.956Z,22.74
2022-10-21T13:45:01.353Z,22.73
2022-10-21T13:47:32.578Z,22.72
2022-10-21T13:50:10.544Z,22.74
2022-10-21T13:52:39.150Z,22.74
2022-10-21T13:55:06.032Z,22.74
2022-10-21T13:57:34.348Z,22.74
2022-10-21T14:00:17.531Z,22.73
2022-10-21T14:02:50.958Z,22.72
2022-10-21T14:05:46.678Z,22.70
2022-10-21T14:08:28.968Z,22.69
2022-10-21T14:11:28.526Z,22.69
2022-10-21T14:13:56.658Z,22.68
2022-10-21T14:16:43.485Z,22.62
2022-10-21T14:19:14.591Z,22.61
2022-10-21T14:21:44.137Z,22.59
2022-10-21T14:24:22.900Z,22.58
2022-10-21T14:26:49.566Z,22.56
2022-10-21T14:29:16.330Z,22.54
2022-10-21T14:31:45.720Z,22.54
2022-10-21T14:34:23.795Z,22.53
2022-10-21T14:37:18.573Z,22.52
2022-10-21T14:39:45.170Z,22.53
2022-10-21T14:42:17.848Z,22.50
2022-10-21T14:44:45.706Z,22.48
2022-10-21T14:47:19.973Z,22.45
2022-10-21T14:49:48.247Z,22.44
2022-10-21T14:52:19.338Z,22.41
2022-10-21T14:54:54.931Z,22.39
2022-10-21T14:57:44.658Z,22.38
2022-10-21T15:00:26.390Z,22.38
2022-10-21T15:02:56.531Z,22.36
2022-10-21T15:05:29.163Z,22.34
2022-10-21T15:08:31.127Z,22.31
2022-10-21T15:10:58.035Z,22.29
2022-10-21T15:13:25.579Z,22.28
2022-10-21T15:15:54.637Z,22.28
2022-10-21T15:18:35.981Z,22.25
2022-10-21T15:21:04.943Z,22.23
2022-10-21T15:23:34.406Z,22.22
2022-10-21T15:26:08.966Z,22.18
2022-10-21T15:28:36.666Z,22.20
2022-10-21T15:31:04.697Z,22.18
2022-10-21T15:33:31.655Z,22.15
2022-10-21T15:36:05.738Z,22.13
2022-10-21T15:38:35.578Z,22.13
2022-10-21T15:41:02.665Z,22.13
2022-10-21T15:43:29.413Z,22.10
2022-10-21T15:45:56.013Z,22.10
2022-10-21T15:48:25.414Z,22.07
2022-10-21T15:50:52.168Z,22.06
2022-10-21T15:53:19.063Z,22.05
2022-10-21T15:55:45.672Z,22.05
2022-10-21T15:58:12.305Z,22.03
2022-10-21T16:00:40.974Z,22.01
2022-10-21T16:03:08.395Z,22.00
2022-10-21T16:05:35.280Z,21.99
2022-10-21T16:08:01.877Z,21.99
2022-10-21T16:10:37.805Z,21.99
2022-10-21T16:13:04.402Z,21.97
2022-10-21T16:15:31.088Z,21.97
2022-10-21T16:17:58.008Z,21.95
2022-10-21T16:20:26.501Z,21.94
2022-10-21T16:22:53.349Z,21.92
2022-10-21T16:25:20.518Z,21.92
2022-10-21T16:28:02.720Z,21.89
2022-10-21T16:30:37.076Z,21.88
2022-10-21T16:33:03.706Z,21.87
2022-10-21T16:35:30.526Z,21.87
2022-10-21T16:37:57.149Z,21.85
2022-10-21T16:40:28.684Z,21.85
2022-10-21T16:42:55.315Z,21.84
2022-10-21T16:45:23.190Z,21.82
2022-10-21T16:47:52.975Z,21.82
2022-10-21T16:50:21.961Z,21.81
2022-10-21T16:52:48.857Z,21.80
2022-10-21T16:55:16.293Z,21.77
2022-10-21T16:57:44.552Z,21.78
2022-10-21T17:00:13.385Z,21.77
2022-10-21T17:02:40.674Z,21.76
2022-10-21T17:05:08.008Z,21.76
2022-10-21T17:07:34.760Z,21.76
2022-10-21T17:10:02.253Z,21.76
2022-10-21T17:12:29.227Z,21.73
2022-10-21T17:14:55.842Z,21.71
2022-10-21T17:17:22.538Z,21.72
2022-10-21T17:19:51.062Z,21.72
2022-10-21T17:22:18.090Z,21.72
2022-10-21T17:24:48.134Z,21.72
2022-10-21T17:27:19.661Z,21.71
2022-10-21T17:29:46.702Z,21.71
2022-10-21T17:32:13.591Z,21.71
2022-10-21T17:34:40.493Z,21.72
2022-10-21T17:37:08.701Z,21.71
2022-10-21T17:39:35.602Z,21.71
2022-10-21T17:42:02.383Z,21.71
2022-10-21T17:44:29.570Z,21.69
2022-10-21T17:46:56.285Z,21.69
2022-10-21T17:49:25.178Z,21.69
2022-10-21T17:51:52.037Z,21.74
2022-10-21T17:54:22.582Z,21.83
2022-10-21T17:56:56.642Z,21.86
2022-10-21T17:59:26.990Z,21.89
2022-10-21T18:01:54.600Z,21.90
2022-10-21T18:04:21.239Z,21.92
2022-10-21T18:06:47.858Z,21.94
2022-10-21T18:09:14.537Z,21.90
2022-10-21T18:11:41.997Z,21.92
2022-10-21T18:14:08.572Z,21.91
2022-10-21T18:16:36.712Z,21.90
2022-10-21T18:19:03.818Z,21.89
2022-10-21T18:21:30.751Z,21.87
2022-10-21T18:23:57.819Z,21.87
2022-10-21T18:26:25.969Z,21.85
2022-10-21T18:28:53.424Z,21.84
2022-10-21T18:31:21.051Z,21.83
2022-10-21T18:33:48.007Z,21.82
2022-10-21T18:36:15.684Z,21.81
2022-10-21T18:38:42.456Z,21.81
2022-10-21T18:41:22.458Z,21.79
2022-10-21T18:43:50.165Z,21.79
2022-10-21T18:46:16.854Z,21.78
2022-10-21T18:48:43.871Z,21.77
2022-10-21T18:51:11.382Z,21.74
2022-10-21T18:53:38.379Z,21.74
2022-10-21T18:56:09.092Z,21.72
2022-10-21T18:58:36.477Z,21.72
2022-10-21T19:01:04.099Z,21.69
2022-10-21T19:03:30.789Z,21.69
2022-10-21T19:05:57.723Z,21.68
2022-10-21T19:08:24.530Z,21.67
2022-10-21T19:10:51.148Z,21.65
2022-10-21T19:13:17.869Z,21.64
2022-10-21T19:15:44.592Z,21.61
2022-10-21T19:18:12.231Z,21.62
2022-10-21T19:20:40.500Z,21.60
2022-10-21T19:23:07.886Z,21.59
2022-10-21T19:25:35.027Z,21.57
2022-10-21T19:28:01.773Z,21.54
2022-10-21T19:30:29.908Z,21.52
2022-10-21T19:33:00.316Z,21.51
2022-10-21T19:35:27.285Z,21.50
2022-10-21T19:37:56.693Z,21.49
2022-10-21T19:40:25.665Z,21.47
2022-10-21T19:42:52.424Z,21.46
2022-10-21T19:45:19.077Z,21.45
2022-10-21T19:47:45.808Z,21.43
2022-10-21T19:50:13.032Z,21.40
2022-10-21T19:52:39.922Z,21.39
2022-10-21T19:55:06.902Z,21.39
2022-10-21T19:57:33.463Z,21.37
2022-10-21T20:00:00.147Z,21.34
2022-10-21T20:02:26.836Z,21.34
2022-10-21T20:04:53.455Z,21.33
2022-10-21T20:07:20.046Z,21.30
2022-10-21T20:09:46.621Z,21.31
2022-10-21T20:12:13.352Z,21.29
2022-10-21T20:14:40.173Z,21.30
2022-10-21T20:17:06.730Z,21.31
2022-10-21T20:19:33.352Z,21.30
2022-10-21T20:22:00.339Z,21.27
2022-10-21T20:24:26.941Z,21.26
2022-10-21T20:26:55.299Z,21.27
2022-10-21T20:29:23.769Z,21.27
2022-10-21T20:31:50.370Z,21.26
2022-10-21T20:34:16.942Z,21.23
2022-10-21T20:36:43.571Z,21.22
2022-10-21T20:39:10.769Z,21.21
2022-10-21T20:41:37.689Z,21.20
2022-10-21T20:44:05.456Z,21.22
2022-10-21T20:46:37.986Z,21.20
2022-10-21T20:49:05.821Z,21.21
2022-10-21T20:51:32.889Z,21.20
2022-10-21T20:54:01.084Z,21.18
2022-10-21T20:56:35.166Z,21.16
2022-10-21T20:59:01.933Z,21.16
2022-10-21T21:01:31.235Z,21.15
2022-10-21T21:03:59.776Z,21.14
2022-10-21T21:06:26.969Z,21.14
2022-10-21T21:09:15.083Z,21.14
2022-10-21T21:11:40.564Z,21.12
2022-10-21T21:14:07.223Z,21.11
2022-10-21T21:16:33.870Z,21.09
2022-10-21T21:19:05.303Z,21.10
2022-10-21T21:21:32.962Z,21.10
2022-10-21T21:23:59.817Z,21.08
2022-10-21T21:26:30.612Z,21.06
2022-10-21T21:28:57.588Z,21.07
2022-10-21T21:31:25.784Z,21.05
2022-10-21T21:33:52.529Z,21.06
2022-10-21T21:36:19.951Z,21.06
2022-10-21T21:38:46.682Z,21.06
2022-10-21T21:41:13.726Z,21.04
2022-10-21T21:43:41.710Z,21.04
2022-10-21T21:46:08.489Z,21.03
2022-10-21T21:48:35.125Z,21.03
2022-10-21T21:51:02.998Z,21.02
2022-10-21T21:53:29.662Z,21.04
2022-10-21T21:55:59.739Z,21.04
2022-10-21T21:58:33.613Z,21.03
2022-10-21T22:01:10.324Z,21.05
2022-10-21T22:03:37.339Z,21.04
2022-10-21T22:06:04.153Z,21.03
2022-10-21T22:08:32.183Z,21.02
2022-10-21T22:11:03.467Z,21.02
2022-10-21T22:13:30.178Z,21.02
2022-10-21T22:15:56.749Z,21.03
2022-10-21T22:18:29.639Z,21.01
2022-10-21T22:21:04.200Z,21.01
2022-10-21T22:23:30.786Z,21.02
2022-10-21T22:25:58.248Z,21.02
2022-10-21T22:28:25.622Z,21.01
2022-10-21T22:30:57.078Z,21.01
2022-10-21T22:33:23.968Z,20.99
2022-10-21T22:35:50.613Z,21.05
2022-10-21T22:38:27.535Z,21.04
2022-10-21T22:40:54.645Z,21.03
2022-10-21T22:43:21.536Z,21.02
2022-10-21T22:45:48.324Z,21.01
2022-10-21T22:48:15.259Z,21.02
2022-10-21T22:50:41.936Z,21.03
2022-10-21T22:53:09.344Z,21.03
2022-10-21T22:55:36.187Z,21.04
2022-10-21T22:58:02.824Z,21.05
2022-10-21T23:00:29.377Z,21.05
2022-10-21T23:02:55.948Z,21.06
2022-10-21T23:05:23.198Z,21.06
2022-10-21T23:07:49.900Z,21.06
2022-10-21T23:10:16.564Z,21.06
2022-10-21T23:12:43.293Z,21.06
2022-10-21T23:15:10.815Z,21.06
2022-10-21T23:17:37.780Z,21.06
2022-10-21T23:20:04.584Z,21.06
2022-10-21T23:22:31.125Z,21.06
2022-10-21T23:24:57.715Z,21.07
2022-10-21T23:27:24.306Z,21.07
2022-10-21T23:29:50.918Z,21.06
2022-10-21T23:32:17.544Z,21.06
2022-10-21T23:34:44.170Z,21.07
2022-10-21T23:37:10.921Z,21.06
2022-10-21T23:39:37.702Z,21.08
2022-10-21T23:42:04.393Z,21.07
2022-10-21T23:44:31.071Z,21.07
2022-10-21T23:46:57.641Z,21.07
2022-10-21T23:49:24.666Z,21.08
2022-10-21T23:51:51.487Z,21.08
2022-10-21T23:54:18.110Z,21.09
2022-10-21T23:56:45.546Z,21.07
2022-10-21T23:59:12.155Z,21.07
